Airfield :
LOGIN :

Register | Disclaimer

   EN    FR    IT 

 










Legend :    VFR   Marginal VFR   IFR   Intensive IFR   Very Intensive IFR
Visi :
Ceiling :
>= 8 km
>= 3000ft
5 to 8 km
1000 to 3000 ft
1500m to 5 km
500 to 1000 ft
800 to 1500m
200 to 500 ft
< 800m
< 200 ft
Symbols :   Thunderstorms  Fog  Heavy snow  Heavy precipitations  Wind > 20 kt
SIGMETs :     Misc.  Thunderstorms  Icing  Turbulence  Mountain Waves  Volcanic Ashes






- Airport Elevation : 100 ft


EBDT - Schaffen

CURRENT METAR :
  • 022025Z AUTO 31005KT 9999 FEW200/// 19/06 Q1013 BLU

EXPIRED METARs :
  • 021955Z AUTO 31007KT 9999 NCD 20/06 Q1013 BLU
  • 021925Z AUTO 32005KT 9999 NCD 21/06 Q1012 BLU
  • 021855Z AUTO 32009KT 9999 FEW220/// 22/06 Q1013 BLU
  • 021825Z AUTO 32009KT 9999 NCD 23/07 Q1013 BLU
  • 021755Z AUTO 31010KT 9999 NCD 24/07 Q1013 BLU

TAF TAF EBDT
Valid from the 02 at 19:00 until the 03 at 07:00 UTC


021541Z 0219/0307 VRB03KT 9999 FEW070 BKN260
PROB30
TEMPO 0219/0220 30007G17KT



MET'MAP, your aeronautical weather chart ! - Copyright ORBIFLY December 2007 - Disclaimer

ORBIFLY MET'MAP TEAM :

Programming & Development : Alexandra Zaïnal
Concept & original design : Baudouin d'Aumeries
Assistance for programming : Marc-Olivier Méhu
Technical & hardware support : Manuel Goepfert

Contact : metmap@orbifly.com




SOURCES & CREDITS :

   NOAA